createdAt,value
2023-02-25T00:00:34.853Z,99.90
2023-02-25T00:03:05.732Z,99.90
2023-02-25T00:05:36.700Z,99.90
2023-02-25T00:08:07.769Z,99.90
2023-02-25T00:10:39.807Z,99.90
2023-02-25T00:13:22.083Z,99.90
2023-02-25T00:15:55.218Z,99.90
2023-02-25T00:18:26.371Z,99.90
2023-02-25T00:20:57.143Z,99.90
2023-02-25T00:23:28.797Z,99.90
2023-02-25T00:26:02.013Z,99.90
2023-02-25T00:28:39.972Z,99.90
2023-02-25T00:31:12.050Z,99.90
2023-02-25T00:33:43.171Z,99.90
2023-02-25T00:36:18.961Z,99.90
2023-02-25T00:38:50.146Z,99.90
2023-02-25T00:41:23.190Z,99.90
2023-02-25T00:43:59.017Z,99.90
2023-02-25T00:46:33.123Z,99.90
2023-02-25T00:49:04.434Z,99.90
2023-02-25T00:51:43.394Z,99.90
2023-02-25T00:54:14.331Z,99.90
2023-02-25T00:56:45.043Z,99.90
2023-02-25T00:59:18.427Z,99.90
2023-02-25T01:01:50.062Z,99.90
2023-02-25T01:04:21.108Z,99.90
2023-02-25T01:06:52.044Z,99.90
2023-02-25T01:09:25.123Z,99.90
2023-02-25T01:11:56.152Z,99.90
2023-02-25T01:14:29.882Z,99.90
2023-02-25T01:17:03.002Z,99.90
2023-02-25T01:19:33.826Z,99.90
2023-02-25T01:22:04.587Z,99.90
2023-02-25T01:24:37.343Z,99.90
2023-02-25T01:27:08.276Z,99.90
2023-02-25T01:29:45.402Z,99.90
2023-02-25T01:32:19.792Z,99.90
2023-02-25T01:34:53.971Z,99.90
2023-02-25T01:37:24.732Z,99.90
2023-02-25T01:39:55.578Z,99.90
2023-02-25T01:42:26.681Z,99.90
2023-02-25T01:45:33.333Z,99.90
2023-02-25T01:48:09.429Z,99.90
2023-02-25T01:50:49.335Z,99.90
2023-02-25T01:53:25.224Z,99.90
2023-02-25T01:55:57.142Z,99.90
2023-02-25T01:58:29.768Z,99.90
2023-02-25T02:01:08.105Z,99.90
2023-02-25T02:03:40.303Z,99.90
2023-02-25T02:06:18.137Z,99.90
2023-02-25T02:08:50.410Z,99.90
2023-02-25T02:11:21.260Z,99.90
2023-02-25T02:13:57.033Z,99.90
2023-02-25T02:16:50.946Z,99.90
2023-02-25T02:19:37.604Z,99.90
2023-02-25T02:22:15.782Z,99.90
2023-02-25T02:25:10.665Z,99.90
2023-02-25T02:28:02.227Z,99.90
2023-02-25T02:30:46.308Z,99.90
2023-02-25T02:33:26.960Z,99.90
2023-02-25T02:36:03.156Z,99.90
2023-02-25T02:38:40.119Z,99.90
2023-02-25T02:41:18.634Z,99.90
2023-02-25T02:44:00.603Z,99.90
2023-02-25T02:46:38.328Z,99.90
2023-02-25T02:49:16.812Z,99.90
2023-02-25T02:51:56.814Z,99.90
2023-02-25T02:54:29.885Z,99.90
2023-02-25T02:57:03.963Z,99.90
2023-02-25T02:59:43.212Z,99.90
2023-02-25T03:02:18.418Z,99.90
2023-02-25T03:04:56.908Z,99.90
2023-02-25T03:07:29.098Z,99.90
2023-02-25T03:10:04.641Z,99.90
2023-02-25T03:12:38.989Z,99.90
2023-02-25T03:15:11.565Z,99.90
2023-02-25T03:17:50.186Z,99.90
2023-02-25T03:20:29.248Z,99.90
2023-02-25T03:23:05.219Z,99.90
2023-02-25T03:25:46.311Z,99.90
2023-02-25T03:28:30.515Z,99.90
2023-02-25T03:31:06.427Z,99.90
2023-02-25T03:33:48.478Z,99.90
2023-02-25T03:36:24.942Z,99.90
2023-02-25T03:39:01.714Z,99.90
2023-02-25T03:41:37.522Z,99.90
2023-02-25T03:44:11.994Z,99.90
2023-02-25T03:46:46.253Z,99.90
2023-02-25T03:49:33.345Z,99.90
2023-02-25T03:52:12.194Z,99.90
2023-02-25T03:54:43.268Z,99.90
2023-02-25T03:57:13.979Z,99.90
2023-02-25T03:59:44.697Z,99.90
2023-02-25T04:02:17.085Z,99.90
2023-02-25T04:04:47.951Z,99.90
2023-02-25T04:07:21.338Z,99.90
2023-02-25T04:09:54.321Z,99.90
2023-02-25T04:12:27.942Z,99.90
2023-02-25T04:14:58.727Z,99.90
2023-02-25T04:17:29.840Z,99.90
2023-02-25T04:20:00.711Z,99.90
2023-02-25T04:22:34.100Z,99.90
2023-02-25T04:25:05.461Z,99.90
2023-02-25T04:27:36.188Z,99.90
2023-02-25T04:30:11.506Z,99.90
2023-02-25T04:32:42.407Z,99.90
2023-02-25T04:35:14.303Z,99.90
2023-02-25T04:37:54.201Z,99.90
2023-02-25T04:40:29.104Z,99.90
2023-02-25T04:42:59.891Z,99.90
2023-02-25T04:45:30.827Z,99.90
2023-02-25T04:48:01.635Z,99.90
2023-02-25T04:50:34.971Z,99.90
2023-02-25T04:53:08.317Z,99.90
2023-02-25T04:55:39.685Z,99.90
2023-02-25T04:58:10.374Z,99.90
2023-02-25T05:00:47.582Z,99.90
2023-02-25T05:03:18.924Z,99.90
2023-02-25T05:05:49.850Z,99.90
2023-02-25T05:08:23.258Z,99.90
2023-02-25T05:10:54.240Z,99.90
2023-02-25T05:13:25.557Z,99.90
2023-02-25T05:16:05.711Z,99.90
2023-02-25T05:18:39.704Z,99.90
2023-02-25T05:21:12.917Z,99.90
2023-02-25T05:23:48.095Z,99.90
2023-02-25T05:26:23.602Z,99.90
2023-02-25T05:28:55.035Z,99.90
2023-02-25T05:31:26.659Z,99.90
2023-02-25T05:34:01.681Z,99.90
2023-02-25T05:36:33.563Z,99.90
2023-02-25T05:39:06.903Z,99.90
2023-02-25T05:41:38.946Z,99.90
2023-02-25T05:44:09.841Z,99.90
2023-02-25T05:46:41.324Z,99.90
2023-02-25T05:49:12.515Z,99.90
2023-02-25T05:51:43.483Z,99.90
2023-02-25T05:54:21.902Z,99.90
2023-02-25T05:56:56.150Z,99.90
2023-02-25T05:59:26.980Z,99.90
2023-02-25T06:01:57.725Z,99.90
2023-02-25T06:04:28.532Z,99.90
2023-02-25T06:06:59.238Z,99.90
2023-02-25T06:09:33.279Z,99.90
2023-02-25T06:12:04.058Z,99.90
2023-02-25T06:14:35.496Z,99.90
2023-02-25T06:17:06.279Z,99.90
2023-02-25T06:19:39.787Z,99.90
2023-02-25T06:22:10.564Z,99.90
2023-02-25T06:24:44.245Z,99.90
2023-02-25T06:27:16.915Z,99.90
2023-02-25T06:29:50.894Z,99.90
2023-02-25T06:32:22.259Z,99.90
2023-02-25T06:34:56.781Z,99.90
2023-02-25T06:37:27.640Z,99.90
2023-02-25T06:40:01.267Z,99.90
2023-02-25T06:42:31.967Z,99.90
2023-02-25T06:45:02.864Z,99.90
2023-02-25T06:47:33.589Z,99.90
2023-02-25T06:50:05.124Z,99.90
2023-02-25T06:52:38.544Z,99.90
2023-02-25T06:55:16.146Z,99.90
2023-02-25T06:57:47.175Z,99.90
2023-02-25T07:00:18.829Z,99.90
2023-02-25T07:02:49.586Z,99.90
2023-02-25T07:05:20.604Z,99.90
2023-02-25T07:07:51.318Z,99.90
2023-02-25T07:10:24.704Z,99.90
2023-02-25T07:12:55.535Z,99.90
2023-02-25T07:15:26.332Z,99.90
2023-02-25T07:17:59.357Z,99.90
2023-02-25T07:20:33.462Z,99.90
2023-02-25T07:23:05.949Z,99.90
2023-02-25T07:25:43.074Z,99.90
2023-02-25T07:28:13.844Z,99.90
2023-02-25T07:30:44.683Z,99.90
2023-02-25T07:33:15.652Z,99.90
2023-02-25T07:35:46.425Z,99.90
2023-02-25T07:38:17.691Z,99.90
2023-02-25T07:40:52.523Z,99.90
2023-02-25T07:43:23.459Z,99.90
2023-02-25T07:45:54.641Z,99.90
2023-02-25T07:48:26.544Z,99.90
2023-02-25T07:50:57.744Z,99.90
2023-02-25T07:53:28.551Z,99.90
2023-02-25T07:56:01.938Z,99.90
2023-02-25T07:58:32.675Z,99.90
2023-02-25T08:01:04.734Z,99.90
2023-02-25T08:03:35.432Z,99.90
2023-02-25T08:06:12.684Z,99.90
2023-02-25T08:08:43.434Z,99.90
2023-02-25T08:11:17.825Z,99.90
2023-02-25T08:13:48.997Z,99.90
2023-02-25T08:16:22.271Z,99.90
2023-02-25T08:18:53.212Z,99.90
2023-02-25T08:21:26.584Z,99.90
2023-02-25T08:23:57.689Z,99.90
2023-02-25T08:26:31.162Z,99.90
2023-02-25T08:29:02.027Z,99.90
2023-02-25T08:31:33.120Z,99.90
2023-02-25T08:34:03.956Z,99.90
2023-02-25T08:36:37.803Z,99.90
2023-02-25T08:39:09.212Z,99.90
2023-02-25T08:41:42.994Z,99.90
2023-02-25T08:44:14.142Z,99.90
2023-02-25T08:46:45.010Z,99.90
2023-02-25T08:49:16.234Z,99.90
2023-02-25T08:51:46.978Z,99.90
2023-02-25T08:54:20.364Z,99.90
2023-02-25T08:56:55.734Z,99.90
2023-02-25T08:59:26.453Z,99.90
2023-02-25T09:01:58.816Z,99.90
2023-02-25T09:04:29.695Z,99.90
2023-02-25T09:07:01.204Z,99.90
2023-02-25T09:09:31.995Z,99.90
2023-02-25T09:12:05.922Z,99.90
2023-02-25T09:14:37.208Z,99.90
2023-02-25T09:17:09.013Z,99.90
2023-02-25T09:19:41.514Z,99.90
2023-02-25T09:22:18.595Z,99.90
2023-02-25T09:24:49.323Z,99.90
2023-02-25T09:27:22.661Z,99.90
2023-02-25T09:29:53.876Z,99.90
2023-02-25T09:32:25.555Z,99.90
2023-02-25T09:34:56.364Z,99.90
2023-02-25T09:37:27.330Z,99.90
2023-02-25T09:39:58.642Z,99.90
2023-02-25T09:42:44.796Z,99.90
2023-02-25T09:45:22.516Z,99.90
2023-02-25T09:47:57.807Z,99.90
2023-02-25T09:50:33.092Z,99.90
2023-02-25T09:53:17.247Z,99.90
2023-02-25T09:56:04.736Z,99.90
2023-02-25T09:58:43.393Z,99.90
2023-02-25T10:01:32.422Z,99.90
2023-02-25T10:04:18.440Z,99.90
2023-02-25T10:06:52.739Z,99.90
2023-02-25T10:09:31.474Z,99.90
2023-02-25T10:12:13.353Z,99.90
2023-02-25T10:15:07.792Z,99.90
2023-02-25T10:17:47.761Z,99.90
2023-02-25T10:20:50.810Z,98.60
2023-02-25T10:23:33.688Z,99.10
2023-02-25T10:26:14.073Z,99.90
2023-02-25T10:28:47.700Z,99.90
2023-02-25T10:31:24.205Z,99.90
2023-02-25T10:33:58.454Z,99.90
2023-02-25T10:36:34.067Z,99.90
2023-02-25T10:39:05.173Z,99.90
2023-02-25T10:41:38.160Z,99.90
2023-02-25T10:44:15.836Z,99.90
2023-02-25T10:46:57.141Z,99.90
2023-02-25T10:49:38.238Z,99.90
2023-02-25T10:52:18.720Z,99.90
2023-02-25T10:54:51.994Z,99.90
2023-02-25T10:57:29.274Z,99.90
2023-02-25T11:00:04.366Z,99.90
2023-02-25T11:02:44.121Z,99.90
2023-02-25T11:05:33.607Z,99.90
2023-02-25T11:08:06.982Z,99.90
2023-02-25T11:10:38.037Z,99.90
2023-02-25T11:13:11.588Z,99.90
2023-02-25T11:15:46.790Z,99.90
2023-02-25T11:18:26.309Z,99.90
2023-02-25T11:20:59.362Z,98.80
2023-02-25T11:23:37.129Z,95.20
2023-02-25T11:26:10.892Z,92.30
2023-02-25T11:28:48.731Z,86.90
2023-02-25T11:31:22.562Z,90.50
2023-02-25T11:34:04.093Z,80.00
2023-02-25T11:36:38.017Z,80.00
2023-02-25T11:39:20.082Z,62.40
2023-02-25T11:41:53.040Z,54.50
2023-02-25T11:44:28.134Z,48.50
2023-02-25T11:47:05.265Z,45.20
2023-02-25T11:50:05.853Z,51.50
2023-02-25T11:52:45.098Z,40.40
2023-02-25T11:55:27.067Z,37.80
2023-02-25T11:58:07.916Z,29.70
2023-02-25T12:00:48.608Z,29.30
2023-02-25T12:03:55.696Z,30.60
2023-02-25T12:06:36.712Z,30.80
2023-02-25T12:09:42.793Z,29.60
2023-02-25T12:12:32.684Z,25.00
2023-02-25T12:15:26.408Z,25.50
2023-02-25T12:18:23.296Z,21.50
2023-02-25T12:21:30.764Z,20.60
2023-02-25T12:24:28.937Z,16.90
2023-02-25T12:27:28.341Z,20.70
2023-02-25T12:30:12.901Z,17.20
2023-02-25T12:32:59.878Z,19.60
2023-02-25T12:35:57.503Z,13.20
2023-02-25T12:38:53.603Z,9.60
2023-02-25T12:41:42.562Z,4.90
2023-02-25T12:44:48.400Z,8.10
2023-02-25T12:47:31.528Z,7.80
2023-02-25T12:50:25.831Z,3.70
2023-02-25T12:53:14.136Z,5.20
2023-02-25T12:56:03.436Z,3.10
2023-02-25T12:58:51.844Z,5.10
2023-02-25T13:02:02.169Z,7.50
2023-02-25T13:04:52.127Z,3.90
2023-02-25T13:07:55.404Z,5.10
2023-02-25T13:10:49.769Z,3.90
2023-02-25T13:13:46.262Z,6.30
2023-02-25T13:16:37.836Z,3.80
2023-02-25T13:19:37.507Z,4.80
2023-02-25T13:22:20.535Z,7.20
2023-02-25T13:24:59.622Z,4.50
2023-02-25T13:27:43.781Z,4.10
2023-02-25T13:30:32.764Z,5.10
2023-02-25T13:33:23.415Z,4.20
2023-02-25T13:36:05.610Z,4.00
2023-02-25T13:38:57.419Z,9.20
2023-02-25T13:41:44.705Z,1.00
2023-02-25T13:44:35.253Z,2.60
2023-02-25T13:47:45.544Z,1.00
2023-02-25T13:50:35.720Z,1.00
2023-02-25T13:53:29.357Z,1.00
2023-02-25T13:56:18.624Z,1.00
2023-02-25T13:59:07.308Z,1.00
2023-02-25T14:01:48.671Z,1.00
2023-02-25T14:04:47.381Z,1.00
2023-02-25T14:07:45.108Z,1.00
2023-02-25T14:10:48.572Z,1.00
2023-02-25T14:13:46.039Z,1.00
2023-02-25T14:16:39.123Z,1.00
2023-02-25T14:19:24.696Z,1.00
2023-02-25T14:22:24.999Z,1.00
2023-02-25T14:25:05.522Z,1.00
2023-02-25T14:27:46.873Z,1.00
2023-02-25T14:30:28.152Z,1.00
2023-02-25T14:33:23.609Z,1.00
2023-02-25T14:36:09.006Z,1.00
2023-02-25T14:39:03.817Z,1.00
2023-02-25T14:41:42.491Z,1.00
2023-02-25T14:44:22.909Z,1.00
2023-02-25T14:46:59.498Z,1.00
2023-02-25T14:49:36.005Z,1.00
2023-02-25T14:53:13.477Z,1.00
2023-02-25T14:56:02.091Z,1.00
2023-02-25T14:59:18.826Z,1.00
2023-02-25T15:02:23.864Z,1.00
2023-02-25T15:05:40.657Z,1.00
2023-02-25T15:08:28.443Z,1.00
2023-02-25T15:11:17.541Z,1.00
2023-02-25T15:14:11.824Z,1.00
2023-02-25T15:17:22.113Z,1.00
2023-02-25T15:20:22.669Z,1.00
2023-02-25T15:23:09.174Z,1.00
2023-02-25T15:25:53.870Z,1.00
2023-02-25T15:28:41.400Z,1.00
2023-02-25T15:31:30.373Z,1.00
2023-02-25T15:34:31.353Z,1.00
2023-02-25T15:37:27.612Z,1.00
2023-02-25T15:40:02.692Z,1.00
2023-02-25T15:42:50.773Z,1.00
2023-02-25T15:45:49.377Z,1.00
2023-02-25T15:48:39.004Z,1.00
2023-02-25T15:51:46.942Z,1.00
2023-02-25T15:54:49.275Z,1.00
2023-02-25T15:57:41.899Z,1.00
2023-02-25T16:00:57.739Z,1.00
2023-02-25T16:06:28.726Z,1.00
2023-02-25T16:09:09.180Z,1.00
2023-02-25T16:11:42.608Z,1.00
2023-02-25T16:14:23.887Z,1.00
2023-02-25T16:16:58.621Z,1.00
2023-02-25T16:19:39.484Z,1.00
2023-02-25T16:22:17.021Z,1.00
2023-02-25T16:24:50.872Z,1.00
2023-02-25T16:27:34.815Z,1.00
2023-02-25T16:30:16.007Z,1.00
2023-02-25T16:33:02.402Z,1.00
2023-02-25T16:35:45.814Z,1.00
2023-02-25T16:38:28.198Z,1.00
2023-02-25T16:41:05.541Z,1.00
2023-02-25T16:43:40.776Z,1.00
2023-02-25T16:46:16.781Z,1.00
2023-02-25T16:48:53.874Z,1.00
2023-02-25T16:51:27.486Z,1.00
2023-02-25T16:54:01.258Z,1.00
2023-02-25T16:56:34.383Z,1.00
2023-02-25T16:59:08.970Z,1.00
2023-02-25T17:01:42.829Z,1.00
2023-02-25T17:04:20.107Z,1.00
2023-02-25T17:07:10.243Z,1.00
2023-02-25T17:09:50.430Z,1.00
2023-02-25T17:12:36.970Z,1.00
2023-02-25T17:15:17.094Z,1.00
2023-02-25T17:17:53.881Z,1.00
2023-02-25T17:20:28.862Z,1.00
2023-02-25T17:23:01.173Z,1.00
2023-02-25T17:25:38.501Z,1.00
2023-02-25T17:28:11.088Z,1.00
2023-02-25T17:30:46.326Z,1.00
2023-02-25T17:33:31.533Z,1.00
2023-02-25T17:36:07.749Z,1.00
2023-02-25T17:38:39.321Z,1.00
2023-02-25T17:41:10.371Z,1.00
2023-02-25T17:43:41.976Z,1.00
2023-02-25T17:46:26.645Z,1.00
2023-02-25T17:49:03.359Z,1.00
2023-02-25T17:51:38.434Z,1.00
2023-02-25T17:54:12.820Z,1.00
2023-02-25T17:56:43.595Z,1.00
2023-02-25T17:59:47.496Z,1.00
2023-02-25T18:02:37.944Z,1.00
2023-02-25T18:05:28.093Z,1.00
2023-02-25T18:08:11.806Z,1.00
2023-02-25T18:10:48.445Z,1.00
2023-02-25T18:13:31.078Z,1.00
2023-02-25T18:16:35.744Z,1.00
2023-02-25T18:19:12.931Z,1.00
2023-02-25T18:21:47.961Z,1.00
2023-02-25T18:24:32.979Z,1.00
2023-02-25T18:27:29.371Z,1.00
2023-02-25T18:30:03.923Z,1.00
2023-02-25T18:32:34.709Z,1.00
2023-02-25T18:35:06.014Z,1.00
2023-02-25T18:37:40.545Z,1.00
2023-02-25T18:40:18.409Z,1.00
2023-02-25T18:42:49.357Z,1.00
2023-02-25T18:45:22.502Z,1.00
2023-02-25T18:47:56.717Z,1.10
2023-02-25T18:50:28.331Z,1.00
2023-02-25T18:53:03.711Z,1.00
2023-02-25T18:55:38.923Z,1.50
2023-02-25T18:58:24.120Z,1.90
2023-02-25T19:00:57.427Z,1.80
2023-02-25T19:03:31.671Z,3.70
2023-02-25T19:06:03.529Z,2.50
2023-02-25T19:08:37.235Z,5.70
2023-02-25T19:11:08.385Z,6.50
2023-02-25T19:13:41.646Z,3.70
2023-02-25T19:16:31.509Z,3.10
2023-02-25T19:19:02.343Z,4.00
2023-02-25T19:21:34.674Z,6.30
2023-02-25T19:24:09.041Z,6.70
2023-02-25T19:26:41.271Z,7.80
2023-02-25T19:29:12.135Z,9.90
2023-02-25T19:31:43.162Z,10.40
2023-02-25T19:34:13.907Z,10.40
2023-02-25T19:36:47.508Z,9.00
2023-02-25T19:39:21.050Z,10.10
2023-02-25T19:41:51.986Z,10.40
2023-02-25T19:44:25.086Z,12.20
2023-02-25T19:46:56.264Z,12.80
2023-02-25T19:49:27.565Z,12.70
2023-02-25T19:51:59.569Z,12.40
2023-02-25T19:54:33.177Z,13.90
2023-02-25T19:57:03.993Z,16.00
2023-02-25T19:59:34.832Z,14.50
2023-02-25T20:02:06.093Z,14.60
2023-02-25T20:04:55.500Z,15.50
2023-02-25T20:07:28.456Z,17.90
2023-02-25T20:10:02.032Z,18.00
2023-02-25T20:12:35.819Z,17.60
2023-02-25T20:15:07.337Z,18.80
2023-02-25T20:17:38.924Z,18.00
2023-02-25T20:20:13.947Z,18.40
2023-02-25T20:22:45.600Z,18.40
2023-02-25T20:25:19.251Z,19.80
2023-02-25T20:27:50.058Z,20.20
2023-02-25T20:30:23.063Z,19.60
2023-02-25T20:32:54.519Z,20.10
2023-02-25T20:35:26.295Z,21.20
2023-02-25T20:38:18.940Z,20.90
2023-02-25T20:40:52.538Z,20.00
2023-02-25T20:43:24.361Z,18.20
2023-02-25T20:45:55.598Z,19.80
2023-02-25T20:48:30.617Z,21.40
2023-02-25T20:51:02.590Z,19.70
2023-02-25T20:53:33.961Z,18.80
2023-02-25T20:56:14.102Z,17.10
2023-02-25T20:58:44.908Z,16.60
2023-02-25T21:01:17.937Z,16.90
2023-02-25T21:03:48.911Z,15.20
2023-02-25T21:06:20.328Z,15.60
2023-02-25T21:08:51.764Z,15.60
2023-02-25T21:11:26.684Z,15.50
2023-02-25T21:13:57.831Z,15.00
2023-02-25T21:16:36.434Z,16.60
2023-02-25T21:19:08.710Z,15.30
2023-02-25T21:21:39.637Z,14.50
2023-02-25T21:24:14.983Z,16.70
2023-02-25T21:26:49.362Z,16.90
2023-02-25T21:29:20.222Z,16.40
2023-02-25T21:31:51.127Z,16.10
2023-02-25T21:34:22.313Z,15.10
2023-02-25T21:36:53.154Z,16.90
2023-02-25T21:39:24.799Z,17.30
2023-02-25T21:41:58.394Z,15.80
2023-02-25T21:44:29.491Z,17.30
2023-02-25T21:47:00.774Z,17.10
2023-02-25T21:49:31.891Z,17.10
2023-02-25T21:52:02.820Z,17.20
2023-02-25T21:54:33.884Z,17.50
2023-02-25T21:57:07.394Z,18.00
2023-02-25T21:59:38.285Z,18.30
2023-02-25T22:02:12.532Z,18.40
2023-02-25T22:04:43.715Z,18.40
2023-02-25T22:07:17.524Z,19.70
2023-02-25T22:09:51.318Z,18.30
2023-02-25T22:12:24.756Z,20.70
2023-02-25T22:14:55.971Z,21.90
2023-02-25T22:17:26.792Z,21.70
2023-02-25T22:19:57.667Z,22.70
2023-02-25T22:22:40.762Z,21.90
2023-02-25T22:25:14.916Z,22.50
2023-02-25T22:27:48.332Z,22.30
2023-02-25T22:30:19.726Z,23.80
2023-02-25T22:32:51.063Z,23.40
2023-02-25T22:35:21.876Z,22.90
2023-02-25T22:37:52.692Z,22.50
2023-02-25T22:40:23.981Z,22.80
2023-02-25T22:43:00.445Z,21.80
2023-02-25T22:45:31.431Z,22.20
2023-02-25T22:48:02.358Z,22.80
2023-02-25T22:50:33.217Z,22.20
2023-02-25T22:53:04.121Z,21.80
2023-02-25T22:55:36.371Z,22.50
2023-02-25T22:58:09.842Z,23.00
2023-02-25T23:00:43.347Z,22.50
2023-02-25T23:03:14.124Z,23.20
2023-02-25T23:05:45.533Z,23.00
2023-02-25T23:08:16.278Z,23.00
2023-02-25T23:10:47.844Z,23.40
2023-02-25T23:13:21.679Z,24.60
2023-02-25T23:15:52.475Z,24.30
2023-02-25T23:18:23.413Z,24.40
2023-02-25T23:20:54.261Z,24.70
2023-02-25T23:23:25.216Z,24.30
2023-02-25T23:25:56.028Z,24.40
2023-02-25T23:28:29.537Z,24.70
2023-02-25T23:31:00.395Z,24.80
2023-02-25T23:33:31.438Z,25.10
2023-02-25T23:36:02.673Z,25.00
2023-02-25T23:38:34.141Z,25.20
2023-02-25T23:41:04.933Z,24.40
2023-02-25T23:43:38.637Z,24.80
2023-02-25T23:46:09.888Z,25.00
2023-02-25T23:48:40.997Z,25.10
2023-02-25T23:51:13.154Z,25.10
2023-02-25T23:53:45.167Z,26.00
2023-02-25T23:56:16.654Z,26.70
2023-02-25T23:58:51.599Z,26.20
